Time;durP1;ratioP1;P1;durP2;ratioP2;P2;SDS_P1;SDS_P2;PMS_P1;PMS_P2;Temp;Humidity;BMP_temperature;BMP_pressure;BME280_temperature;BME280_humidity;BME280_pressure;Samples;Min_cycle;Max_cycle;Signal;HPM_P1;HPM_P2
2021/08/10 00:00:14;;;;;;;;;;;;;;;18.09;74.00;98520.07;1726000;82;26765;-87
2021/08/10 00:02:42;;;;;;;;;;;;;;;18.18;74.09;98517.82;1736709;82;20254;-88
2021/08/10 00:05:08;;;;;;;;;;;;;;;18.25;74.17;98512.27;1702538;82;20272;-89
2021/08/10 00:07:34;;;;;;;;;;;;;;;18.32;74.24;98510.67;1667835;85;25749;-88
2021/08/10 00:10:00;;;;;;;;;;;;;;;18.32;74.28;98515.48;1671351;85;22028;-87
2021/08/10 00:12:26;;;;;;;;;;;;;;;18.35;74.35;98516.97;1669673;85;20949;-87
2021/08/10 00:14:52;;;;;;;;;;;;;;;18.34;74.36;98520.11;1692980;83;20330;-87
2021/08/10 00:17:19;;;;;;;;;;;;;;;18.30;74.44;98525.39;1692262;84;20242;-87
2021/08/10 00:19:45;;;;;;;;;;;;;;;18.17;74.47;98524.09;1688277;84;25915;-88
2021/08/10 00:22:11;;;;;;;;;;;;;;;18.17;74.54;98532.05;1692172;84;20327;-88
2021/08/10 00:24:37;;;;;;;;;;;;;;;18.26;74.63;98534.64;1684774;84;20870;-88
2021/08/10 00:27:03;;;;;;;;;;;;;;;18.32;74.68;98536.68;1694173;84;25281;-88
2021/08/10 00:29:29;;;;;;;;;;;;;;;18.40;74.74;98536.73;1666139;84;20493;-88
2021/08/10 00:31:56;;;;;;;;;;;;;;;18.46;74.79;98541.07;1661459;85;25054;-88
2021/08/10 00:34:28;;;;;;;;;;;;;;;18.39;74.82;98532.41;1665006;85;22071;-87
2021/08/10 00:36:54;;;;;;;;;;;;;;;18.38;74.88;98532.06;1696639;84;26409;-88
2021/08/10 00:39:20;;;;;;;;;;;;;;;18.43;74.95;98539.58;1699786;84;24393;-88
2021/08/10 00:41:46;;;;;;;;;;;;;;;18.42;75.00;98545.02;1662753;85;20246;-88
2021/08/10 00:44:16;;;;;;;;;;;;;;;18.29;75.01;98548.05;1669457;85;25147;-87
2021/08/10 00:46:42;;;;;;;;;;;;;;;18.26;75.06;98548.38;1683887;83;22625;-88
2021/08/10 00:49:08;;;;;;;;;;;;;;;18.30;75.15;98548.40;1666153;85;26089;-88
2021/08/10 00:51:37;;;;;;;;;;;;;;;18.32;75.22;98555.22;1669750;85;20910;-88
2021/08/10 00:54:05;;;;;;;;;;;;;;;18.42;75.28;98550.32;1681803;85;20296;-88
2021/08/10 00:56:31;;;;;;;;;;;;;;;18.42;75.35;98552.48;1686590;84;25025;-88
2021/08/10 00:58:58;;;;;;;;;;;;;;;18.37;75.41;98551.63;1684887;85;22377;-88
2021/08/10 01:01:24;;;;;;;;;;;;;;;18.29;75.46;98543.59;1685857;84;26060;-89
2021/08/10 01:03:50;;;;;;;;;;;;;;;18.29;75.51;98534.81;1683665;85;24553;-88
2021/08/10 01:06:18;;;;;;;;;;;;;;;18.29;75.61;98536.13;1724187;82;20800;-87
2021/08/10 01:08:56;;;;;;;;;;;;;;;18.21;75.67;98530.78;1726415;82;25054;-87
2021/08/10 01:11:36;;;;;;;;;;;;;;;18.30;75.75;98533.83;1732221;82;22043;-86
2021/08/10 01:14:09;;;;;;;;;;;;;;;18.34;75.83;98532.53;1705152;83;26852;-88
2021/08/10 01:16:40;;;;;;;;;;;;;;;18.34;75.91;98533.36;1707328;83;24610;-87
2021/08/10 01:19:20;;;;;;;;;;;;;;;18.37;75.99;98533.56;1701259;83;20210;-87
2021/08/10 01:21:48;;;;;;;;;;;;;;;18.39;76.06;98540.84;1680133;84;24985;-87
2021/08/10 01:24:19;;;;;;;;;;;;;;;18.36;76.14;98548.62;1692750;84;22102;-86
2021/08/10 01:26:49;;;;;;;;;;;;;;;18.34;76.18;98537.34;1686494;84;26699;-85
2021/08/10 01:29:26;;;;;;;;;;;;;;;18.34;76.24;98536.50;1687826;84;24303;-87
2021/08/10 01:31:53;;;;;;;;;;;;;;;18.31;76.34;98541.63;1699544;83;20293;-87
2021/08/10 01:34:20;;;;;;;;;;;;;;;18.27;76.38;98548.20;1697562;83;25006;-87
2021/08/10 01:36:49;;;;;;;;;;;;;;;18.25;76.46;98552.00;1687087;84;22329;-87
2021/08/10 01:39:18;;;;;;;;;;;;;;;18.23;76.52;98548.66;1671488;84;21152;-87
2021/08/10 01:41:45;;;;;;;;;;;;;;;18.23;76.60;98546.84;1694397;84;25440;-87
2021/08/10 01:44:11;;;;;;;;;;;;;;;18.25;76.67;98553.33;1694553;83;20312;-86
2021/08/10 01:46:40;;;;;;;;;;;;;;;18.25;76.74;98557.30;1689097;83;22437;-86
2021/08/10 01:49:06;;;;;;;;;;;;;;;18.25;76.82;98542.73;1695834;83;22073;-86
2021/08/10 01:51:35;;;;;;;;;;;;;;;18.21;76.88;98542.22;1668015;84;25973;-86
2021/08/10 01:54:04;;;;;;;;;;;;;;;18.25;76.96;98540.91;1697112;83;24417;-87
2021/08/10 01:56:32;;;;;;;;;;;;;;;18.29;77.03;98546.23;1676598;84;20240;-86
2021/08/10 01:59:00;;;;;;;;;;;;;;;18.32;77.10;98540.66;1697945;84;25015;-87
2021/08/10 02:01:29;;;;;;;;;;;;;;;18.30;77.16;98537.31;1695993;83;22622;-86
2021/08/10 02:03:59;;;;;;;;;;;;;;;18.26;77.20;98537.28;1694685;84;25977;-87
2021/08/10 02:06:26;;;;;;;;;;;;;;;18.25;77.25;98550.19;1700043;82;24403;-87
2021/08/10 02:08:53;;;;;;;;;;;;;;;18.31;77.30;98550.07;1705226;83;20218;-86
2021/08/10 02:11:21;;;;;;;;;;;;;;;18.34;77.36;98545.77;1736469;81;25684;-86
2021/08/10 02:13:47;;;;;;;;;;;;;;;18.34;77.37;98543.13;1703481;83;21978;-86
2021/08/10 02:16:14;;;;;;;;;;;;;;;18.33;77.39;98538.81;1699278;83;25995;-87
2021/08/10 02:18:40;;;;;;;;;;;;;;;18.34;77.43;98529.87;1731885;82;24524;-86
2021/08/10 02:21:11;;;;;;;;;;;;;;;18.32;77.50;98536.68;1731068;81;20203;-86
2021/08/10 02:23:39;;;;;;;;;;;;;;;18.25;77.52;98536.11;1730535;82;24981;-87
2021/08/10 02:26:05;;;;;;;;;;;;;;;18.17;77.54;98534.70;1716648;82;22964;-87
2021/08/10 02:28:31;;;;;;;;;;;;;;;18.12;77.58;98529.86;1707287;82;26023;-88
2021/08/10 02:30:59;;;;;;;;;;;;;;;18.11;77.64;98526.06;1682810;83;24374;-87
2021/08/10 02:33:26;;;;;;;;;;;;;;;18.11;77.68;98522.09;1722106;82;20220;-87
2021/08/10 02:35:54;;;;;;;;;;;;;;;18.16;77.77;98513.19;1729111;82;24991;-88
2021/08/10 02:38:29;;;;;;;;;;;;;;;18.16;77.81;98511.38;1730714;82;22088;-88
2021/08/10 02:40:56;;;;;;;;;;;;;;;18.06;77.82;98497.84;1725004;82;26847;-87
2021/08/10 02:43:26;;;;;;;;;;;;;;;17.90;77.83;98495.40;1727075;82;24451;-88
2021/08/10 02:45:52;;;;;;;;;;;;;;;17.82;77.86;98491.37;1719539;82;20352;-87
2021/08/10 02:48:19;;;;;;;;;;;;;;;17.81;77.95;98489.70;1743393;82;24956;-87
2021/08/10 02:50:46;;;;;;;;;;;;;;;17.92;78.06;98497.42;1745374;81;22212;-87
2021/08/10 02:53:12;;;;;;;;;;;;;;;18.08;78.13;98494.56;1746815;81;26043;-87
2021/08/10 02:55:40;;;;;;;;;;;;;;;18.17;78.19;98500.26;1740898;81;24992;-89
2021/08/10 02:58:14;;;;;;;;;;;;;;;18.25;78.23;98493.72;1747325;81;20172;-88
2021/08/10 03:00:42;;;;;;;;;;;;;;;18.24;78.27;98487.58;1742519;81;25131;-88
2021/08/10 03:03:10;;;;;;;;;;;;;;;18.24;78.31;98484.94;1742204;81;22125;-88
2021/08/10 03:05:36;;;;;;;;;;;;;;;18.26;78.33;98484.30;1743282;81;26806;-88
2021/08/10 03:08:03;;;;;;;;;;;;;;;18.25;78.35;98487.09;1744040;81;24581;-89
2021/08/10 03:10:31;;;;;;;;;;;;;;;18.21;78.38;98482.61;1747556;82;20223;-89
2021/08/10 03:12:59;;;;;;;;;;;;;;;18.18;78.41;98482.06;1743669;81;24470;-88
2021/08/10 03:15:26;;;;;;;;;;;;;;;18.10;78.44;98485.98;1742837;81;22202;-89
2021/08/10 03:17:54;;;;;;;;;;;;;;;18.00;78.43;98490.54;1733392;82;26042;-89
2021/08/10 03:20:21;;;;;;;;;;;;;;;17.89;78.47;98495.05;1739854;81;24425;-89
2021/08/10 03:22:48;;;;;;;;;;;;;;;17.87;78.53;98502.34;1744703;81;20398;-88
2021/08/10 03:25:15;;;;;;;;;;;;;;;17.95;78.61;98497.59;1732850;82;24840;-89
2021/08/10 03:27:42;;;;;;;;;;;;;;;18.06;78.72;98500.50;1704752;83;21979;-89
2021/08/10 03:30:20;;;;;;;;;;;;;;;18.14;78.78;98500.58;1729625;81;26169;-89
2021/08/10 03:32:48;;;;;;;;;;;;;;;18.20;78.80;98496.83;1729982;81;24506;-88
2021/08/10 03:35:15;;;;;;;;;;;;;;;18.08;78.81;98474.70;1727404;81;20360;-89
2021/08/10 03:37:41;;;;;;;;;;;;;;;17.97;78.85;98474.45;1732254;82;25127;-89
2021/08/10 03:40:08;;;;;;;;;;;;;;;17.90;78.88;98478.68;1732084;82;22931;-89
2021/08/10 03:42:34;;;;;;;;;;;;;;;17.86;78.93;98475.52;1739182;82;26070;-88
2021/08/10 03:45:06;;;;;;;;;;;;;;;17.93;79.00;98483.20;1738980;82;24251;-88
2021/08/10 03:47:38;;;;;;;;;;;;;;;18.00;79.06;98479.95;1691452;83;20350;-88
2021/08/10 03:50:05;;;;;;;;;;;;;;;18.10;79.12;98476.72;1697609;83;25059;-87
2021/08/10 03:52:32;;;;;;;;;;;;;;;18.14;79.12;98479.39;1728615;81;21976;-87
2021/08/10 03:54:59;;;;;;;;;;;;;;;18.14;79.15;98474.92;1729877;81;25928;-87
2021/08/10 03:57:29;;;;;;;;;;;;;;;18.09;79.15;98477.20;1725320;82;24449;-87
2021/08/10 03:59:56;;;;;;;;;;;;;;;18.05;79.16;98476.34;1698053;83;20263;-87
2021/08/10 04:02:22;;;;;;;;;;;;;;;18.07;79.20;98480.98;1709576;81;25115;-87
2021/08/10 04:04:50;;;;;;;;;;;;;;;18.04;79.25;98475.52;1730637;81;21968;-87
2021/08/10 04:07:16;;;;;;;;;;;;;;;18.00;79.27;98480.78;1731361;81;25983;-88
2021/08/10 04:09:49;;;;;;;;;;;;;;;17.97;79.28;98486.36;1732854;82;24519;-87
2021/08/10 04:12:23;;;;;;;;;;;;;;;17.96;79.30;98488.66;1730757;82;20242;-88
2021/08/10 04:14:54;;;;;;;;;;;;;;;17.96;79.33;98484.70;1698031;83;25110;-87
2021/08/10 04:17:22;;;;;;;;;;;;;;;17.91;79.35;98485.16;1705159;83;22094;-87
2021/08/10 04:19:52;;;;;;;;;;;;;;;17.88;79.36;98491.26;1678782;84;40475;-87
2021/08/10 04:22:17;;;;;;;;;;;;;;;17.96;79.40;98495.28;1707037;82;25304;-87
2021/08/10 04:24:44;;;;;;;;;;;;;;;18.02;79.41;98498.66;1726774;82;20289;-87
2021/08/10 04:27:12;;;;;;;;;;;;;;;18.00;79.44;98497.16;1724610;82;25775;-88
2021/08/10 04:29:38;;;;;;;;;;;;;;;17.97;79.47;98494.31;1729435;82;22129;-88
2021/08/10 04:32:05;;;;;;;;;;;;;;;17.94;79.50;98506.05;1729490;80;26059;-88
2021/08/10 04:34:31;;;;;;;;;;;;;;;17.92;79.57;98507.17;1733453;81;24596;-88
2021/08/10 04:36:57;;;;;;;;;;;;;;;17.91;79.62;98508.16;1708336;82;20499;-88
2021/08/10 04:39:26;;;;;;;;;;;;;;;17.92;79.69;98513.30;1733364;82;25003;-88
2021/08/10 04:41:51;;;;;;;;;;;;;;;17.92;79.75;98508.50;1727729;82;22265;-88
2021/08/10 04:44:21;;;;;;;;;;;;;;;17.88;79.82;98509.30;1734795;82;25993;-88
2021/08/10 04:46:47;;;;;;;;;;;;;;;17.79;79.86;98506.70;1704550;82;24472;-88
2021/08/10 04:49:14;;;;;;;;;;;;;;;17.72;79.88;98513.11;1738222;82;20296;-88
2021/08/10 04:51:40;;;;;;;;;;;;;;;17.77;79.97;98510.02;1715919;81;24991;-88
2021/08/10 04:54:06;;;;;;;;;;;;;;;17.82;80.04;98511.23;1738026;81;22032;-88
2021/08/10 04:56:33;;;;;;;;;;;;;;;17.83;80.11;98507.60;1707089;82;26171;-88
2021/08/10 04:58:59;;;;;;;;;;;;;;;17.90;80.21;98507.31;1739004;81;24499;-88
2021/08/10 05:01:25;;;;;;;;;;;;;;;18.07;80.25;98511.44;1742022;81;20329;-88
2021/08/10 05:03:53;;;;;;;;;;;;;;;18.17;80.35;98506.39;1737458;81;25195;-88
2021/08/10 05:06:19;;;;;;;;;;;;;;;18.26;80.41;98512.61;1738199;81;22032;-87
2021/08/10 05:08:45;;;;;;;;;;;;;;;18.33;80.45;98505.69;1740456;81;26063;-87
2021/08/10 05:11:16;;;;;;;;;;;;;;;18.34;80.50;98507.36;1735918;82;24526;-87
2021/08/10 05:13:42;;;;;;;;;;;;;;;18.39;80.58;98506.40;1698082;83;20166;-87
2021/08/10 05:16:08;;;;;;;;;;;;;;;18.45;80.62;98511.58;1708538;83;20256;-87
2021/08/10 05:18:35;;;;;;;;;;;;;;;18.52;80.72;98508.16;1730746;82;20236;-87
2021/08/10 05:21:11;;;;;;;;;;;;;;;18.63;80.77;98513.23;1707975;82;25983;-87
2021/08/10 05:23:37;;;;;;;;;;;;;;;18.71;80.84;98513.27;1707956;83;24523;-87
2021/08/10 05:26:03;;;;;;;;;;;;;;;18.78;80.91;98515.64;1708740;83;20807;-87
2021/08/10 05:28:29;;;;;;;;;;;;;;;18.89;80.95;98514.55;1728431;82;24967;-87
2021/08/10 05:30:58;;;;;;;;;;;;;;;18.97;80.97;98514.61;1725933;82;22835;-88
2021/08/10 05:33:29;;;;;;;;;;;;;;;19.02;81.04;98514.13;1702739;83;26160;-87
2021/08/10 05:35:52;;;;;;;;;;;;;;;19.10;81.03;98514.15;1697052;82;24500;-88
2021/08/10 05:38:18;;;;;;;;;;;;;;;19.18;81.06;98515.03;1739732;81;20834;-88
2021/08/10 05:40:44;;;;;;;;;;;;;;;19.26;81.06;98516.88;1741203;81;25022;-87
2021/08/10 05:43:11;;;;;;;;;;;;;;;19.34;81.10;98515.59;1738597;81;21981;-87
2021/08/10 05:45:37;;;;;;;;;;;;;;;19.42;81.10;98514.80;1735630;81;26032;-87
2021/08/10 05:48:03;;;;;;;;;;;;;;;19.47;81.11;98508.55;1739934;81;24466;-87
2021/08/10 05:50:29;;;;;;;;;;;;;;;19.51;81.12;98504.56;1734245;82;20207;-87
2021/08/10 05:52:55;;;;;;;;;;;;;;;19.55;81.13;98497.94;1720425;82;25221;-87
2021/08/10 05:55:21;;;;;;;;;;;;;;;19.62;81.12;98498.95;1741849;82;21969;-87
2021/08/10 05:57:51;;;;;;;;;;;;;;;19.69;81.14;98495.16;1733590;82;26936;-87
2021/08/10 06:00:20;;;;;;;;;;;;;;;19.73;81.13;98497.81;1678293;82;21804;-88
2021/08/10 06:02:46;;;;;;;;;;;;;;;19.76;81.11;98496.98;1726019;82;20148;-88
2021/08/10 06:05:13;;;;;;;;;;;;;;;19.81;81.08;98499.97;1728404;82;25037;-88
2021/08/10 06:07:41;;;;;;;;;;;;;;;19.85;81.08;98497.34;1724267;82;22691;-88
2021/08/10 06:10:10;;;;;;;;;;;;;;;19.95;81.08;98507.31;1714582;83;26854;-88
2021/08/10 06:12:39;;;;;;;;;;;;;;;20.04;81.10;98509.47;1712887;82;24561;-88
2021/08/10 06:15:07;;;;;;;;;;;;;;;20.15;81.11;98509.64;1710852;83;20236;-87
2021/08/10 06:17:33;;;;;;;;;;;;;;;20.22;81.12;98504.84;1720552;82;25217;-89
2021/08/10 06:20:00;;;;;;;;;;;;;;;20.29;81.10;98506.34;1691972;82;20253;-88
2021/08/10 06:22:26;;;;;;;;;;;;;;;20.35;81.09;98507.84;1683958;83;26771;-87
2021/08/10 06:24:52;;;;;;;;;;;;;;;20.39;81.03;98513.18;1695581;83;20398;-88
2021/08/10 06:27:22;;;;;;;;;;;;;;;20.44;80.95;98510.84;1725655;82;20224;-88
2021/08/10 06:29:47;;;;;;;;;;;;;;;20.47;80.83;98513.65;1709126;82;25342;-89
2021/08/10 06:32:13;;;;;;;;;;;;;;;20.55;80.72;98515.48;1726753;81;22043;-87
2021/08/10 06:34:52;;;;;;;;;;;;;;;20.59;80.63;98511.48;1724642;81;21031;-87
2021/08/10 06:37:18;;;;;;;;;;;;;;;20.68;80.55;98510.46;1728909;81;24551;-87
2021/08/10 06:39:44;;;;;;;;;;;;;;;20.73;80.43;98512.14;1709121;81;20347;-87
2021/08/10 06:42:12;;;;;;;;;;;;;;;20.77;80.35;98513.45;1725627;82;20367;-87
2021/08/10 06:44:38;;;;;;;;;;;;;;;20.77;80.21;98506.81;1693572;84;21959;-87
2021/08/10 06:47:04;;;;;;;;;;;;;;;20.85;80.10;98504.11;1729866;81;26188;-86
2021/08/10 06:49:31;;;;;;;;;;;;;;;20.89;79.98;98498.80;1727174;82;20248;-88
2021/08/10 06:52:05;;;;;;;;;;;;;;;20.93;79.82;98494.80;1729459;81;20482;-87
2021/08/10 06:54:43;;;;;;;;;;;;;;;21.01;79.63;98495.25;1687949;84;25010;-87
2021/08/10 06:57:10;;;;;;;;;;;;;;;21.10;79.46;98496.91;1704963;84;22223;-87
2021/08/10 06:59:36;;;;;;;;;;;;;;;21.21;79.30;98500.05;1695081;84;26041;-87
2021/08/10 07:02:03;;;;;;;;;;;;;;;21.30;79.20;98499.50;1721261;82;24501;-87
2021/08/10 07:04:29;;;;;;;;;;;;;;;21.36;79.00;98497.98;1723145;82;20294;-87
2021/08/10 07:06:55;;;;;;;;;;;;;;;21.43;78.81;98497.63;1697070;83;20257;-87
2021/08/10 07:09:22;;;;;;;;;;;;;;;21.51;78.67;98494.91;1697878;83;22015;-87
2021/08/10 07:11:51;;;;;;;;;;;;;;;21.58;78.50;98492.71;1700185;83;26195;-87
2021/08/10 07:14:17;;;;;;;;;;;;;;;21.60;78.28;98497.88;1697695;82;20905;-87
2021/08/10 07:16:44;;;;;;;;;;;;;;;21.65;77.96;98491.52;1709495;83;20385;-87
2021/08/10 07:19:13;;;;;;;;;;;;;;;21.68;77.79;98487.15;1710469;82;25026;-87
2021/08/10 07:21:39;;;;;;;;;;;;;;;21.79;77.57;98485.92;1732473;82;22827;-87
2021/08/10 07:24:11;;;;;;;;;;;;;;;21.87;77.31;98484.05;1735005;82;26127;-86
2021/08/10 07:26:37;;;;;;;;;;;;;;;21.96;77.08;98480.84;1695669;83;24624;-87
2021/08/10 07:29:04;;;;;;;;;;;;;;;22.04;76.77;98480.25;1739872;81;20216;-87
2021/08/10 07:31:30;;;;;;;;;;;;;;;22.11;76.58;98474.55;1700505;82;25011;-87
2021/08/10 07:33:56;;;;;;;;;;;;;;;22.16;76.38;98482.50;1730978;82;22091;-87
2021/08/10 07:36:22;;;;;;;;;;;;;;;22.14;76.05;98482.70;1727897;82;26180;-87
2021/08/10 07:38:48;;;;;;;;;;;;;;;22.19;75.78;98482.16;1698121;83;24465;-87
2021/08/10 07:41:14;;;;;;;;;;;;;;;22.27;75.50;98479.41;1698475;82;20615;-87
2021/08/10 07:43:40;;;;;;;;;;;;;;;22.29;75.15;98480.07;1737796;81;25031;-89
2021/08/10 07:46:09;;;;;;;;;;;;;;;22.31;74.83;98483.39;1733334;82;20371;-89
2021/08/10 07:48:37;;;;;;;;;;;;;;;22.40;74.63;98477.80;1702685;82;25798;-89
2021/08/10 07:51:04;;;;;;;;;;;;;;;22.49;74.47;98474.54;1739366;81;24444;-89
2021/08/10 07:53:30;;;;;;;;;;;;;;;22.52;74.25;98471.53;1740500;81;20224;-89
2021/08/10 07:55:56;;;;;;;;;;;;;;;22.62;74.10;98472.09;1738107;81;20324;-87
2021/08/10 07:58:23;;;;;;;;;;;;;;;22.66;73.91;98474.70;1740334;82;20291;-87
2021/08/10 08:00:50;;;;;;;;;;;;;;;22.70;73.64;98475.16;1737564;80;26769;-87
2021/08/10 08:03:16;;;;;;;;;;;;;;;22.79;73.41;98473.61;1726916;81;24084;-87
2021/08/10 08:05:42;;;;;;;;;;;;;;;22.93;73.22;98467.94;1740556;82;20247;-87
2021/08/10 08:08:08;;;;;;;;;;;;;;;22.97;72.99;98467.88;1735467;82;20233;-87
2021/08/10 08:10:34;;;;;;;;;;;;;;;23.03;72.78;98465.81;1736924;81;21996;-87
2021/08/10 08:13:00;;;;;;;;;;;;;;;23.14;72.64;98464.01;1737178;81;21212;-87
2021/08/10 08:15:34;;;;;;;;;;;;;;;23.16;72.45;98466.00;1735940;80;24458;-86
2021/08/10 08:18:00;;;;;;;;;;;;;;;23.23;72.14;98467.42;1736079;80;20224;-87
2021/08/10 08:20:26;;;;;;;;;;;;;;;23.31;71.82;98465.97;1737276;81;25102;-86
2021/08/10 08:22:52;;;;;;;;;;;;;;;23.38;71.60;98467.39;1737227;81;22148;-86
2021/08/10 08:25:20;;;;;;;;;;;;;;;23.41;71.29;98466.49;1737122;81;23154;-86
2021/08/10 08:27:46;;;;;;;;;;;;;;;23.50;71.00;98468.59;1740406;81;24239;-86
2021/08/10 08:30:12;;;;;;;;;;;;;;;23.59;70.71;98465.61;1740545;80;20787;-87
2021/08/10 08:32:38;;;;;;;;;;;;;;;23.65;70.42;98460.85;1738275;80;24973;-86
2021/08/10 08:35:11;;;;;;;;;;;;;;;23.75;70.11;98464.55;1692964;83;21936;-86
2021/08/10 08:37:37;;;;;;;;;;;;;;;23.86;69.85;98464.55;1704053;84;26040;-86
2021/08/10 08:40:04;;;;;;;;;;;;;;;23.93;69.58;98462.27;1732766;82;24740;-86
2021/08/10 08:42:30;;;;;;;;;;;;;;;23.96;69.22;98466.39;1697828;83;20229;-86
2021/08/10 08:44:56;;;;;;;;;;;;;;;23.99;68.91;98466.03;1699109;82;25029;-88
2021/08/10 08:47:23;;;;;;;;;;;;;;;23.96;68.46;98461.87;1696435;82;22036;-88
2021/08/10 08:49:49;;;;;;;;;;;;;;;23.98;68.00;98463.03;1699123;82;26027;-88
2021/08/10 08:52:16;;;;;;;;;;;;;;;24.03;67.64;98464.11;1688893;82;24482;-88
2021/08/10 08:54:43;;;;;;;;;;;;;;;24.11;67.43;98461.28;1694514;82;20310;-88
2021/08/10 08:57:10;;;;;;;;;;;;;;;24.19;67.12;98461.70;1695560;82;24926;-88
2021/08/10 08:59:40;;;;;;;;;;;;;;;24.27;66.82;98465.59;1700792;83;22157;-88
2021/08/10 09:02:08;;;;;;;;;;;;;;;24.32;66.59;98458.33;1702194;82;26681;-88
2021/08/10 09:04:34;;;;;;;;;;;;;;;24.38;66.35;98459.72;1691128;84;24412;-88
2021/08/10 09:07:00;;;;;;;;;;;;;;;24.41;66.06;98455.30;1699525;82;20348;-88
2021/08/10 09:09:27;;;;;;;;;;;;;;;24.46;65.81;98455.55;1708845;82;20851;-88
2021/08/10 09:11:55;;;;;;;;;;;;;;;24.51;65.54;98452.28;1705717;83;22009;-88
2021/08/10 09:14:22;;;;;;;;;;;;;;;24.52;65.27;98450.76;1747088;80;25959;-86
2021/08/10 09:17:07;;;;;;;;;;;;;;;24.62;65.03;98449.58;1745653;80;24492;-86
2021/08/10 09:19:51;;;;;;;;;;;;;;;24.72;64.89;98440.17;1748075;81;20471;-86
2021/08/10 09:22:19;;;;;;;;;;;;;;;24.77;64.54;98437.73;1741094;80;25045;-86
2021/08/10 09:24:47;;;;;;;;;;;;;;;24.89;64.37;98436.70;1702021;82;22067;-86
2021/08/10 09:27:30;;;;;;;;;;;;;;;24.94;64.23;98431.57;1675557;84;26255;-86
2021/08/10 09:29:57;;;;;;;;;;;;;;;24.92;63.96;98435.81;1710397;82;24538;-86
2021/08/10 09:32:23;;;;;;;;;;;;;;;24.87;63.45;98428.85;1711538;82;20530;-86
2021/08/10 09:35:08;;;;;;;;;;;;;;;24.97;63.27;98429.34;1714431;82;25035;-86
2021/08/10 09:37:34;;;;;;;;;;;;;;;25.03;63.06;98429.57;1708265;82;21353;-86
2021/08/10 09:40:01;;;;;;;;;;;;;;;25.18;63.01;98427.06;1679882;83;25974;-87
2021/08/10 09:42:27;;;;;;;;;;;;;;;25.30;62.85;98425.97;1674931;84;24646;-86
2021/08/10 09:45:04;;;;;;;;;;;;;;;25.34;62.63;98424.03;1678321;83;20307;-86
2021/08/10 09:47:31;;;;;;;;;;;;;;;25.40;62.43;98421.05;1679663;83;24974;-87
2021/08/10 09:50:05;;;;;;;;;;;;;;;25.42;62.11;98427.84;1677414;84;21998;-87
2021/08/10 09:52:32;;;;;;;;;;;;;;;25.49;61.88;98425.70;1689364;83;27304;-87
2021/08/10 09:55:11;;;;;;;;;;;;;;;25.51;61.54;98423.66;1682558;84;24548;-87
2021/08/10 09:57:40;;;;;;;;;;;;;;;25.63;61.37;98424.77;1689439;83;20212;-87
2021/08/10 10:00:06;;;;;;;;;;;;;;;25.70;61.13;98418.88;1693311;84;24982;-89
2021/08/10 10:02:37;;;;;;;;;;;;;;;25.66;60.72;98413.11;1686933;84;21901;-87
2021/08/10 10:05:10;;;;;;;;;;;;;;;25.75;60.51;98420.42;1700318;82;25977;-86
2021/08/10 10:07:35;;;;;;;;;;;;;;;25.83;60.29;98410.86;1695001;82;24436;-86
2021/08/10 10:10:03;;;;;;;;;;;;;;;25.89;60.09;98407.37;1735499;81;20722;-87
2021/08/10 10:12:30;;;;;;;;;;;;;;;25.98;59.93;98407.98;1738458;82;24961;-86
2021/08/10 10:14:58;;;;;;;;;;;;;;;25.98;59.64;98406.64;1737563;82;22090;-87
2021/08/10 10:17:24;;;;;;;;;;;;;;;25.98;59.41;98403.95;1724837;82;26150;-87
2021/08/10 10:19:56;;;;;;;;;;;;;;;26.03;59.29;98392.92;1738550;82;24491;-87
2021/08/10 10:22:25;;;;;;;;;;;;;;;26.13;59.14;98402.72;1703133;83;20285;-87
2021/08/10 10:24:52;;;;;;;;;;;;;;;26.20;59.01;98403.55;1740313;80;25070;-87
2021/08/10 10:27:19;;;;;;;;;;;;;;;26.27;58.98;98400.06;1743983;80;22038;-87
2021/08/10 10:29:47;;;;;;;;;;;;;;;26.32;58.85;98404.30;1740650;80;26093;-86
2021/08/10 10:32:13;;;;;;;;;;;;;;;26.39;58.74;98403.27;1745228;82;24442;-86
2021/08/10 10:34:41;;;;;;;;;;;;;;;26.46;58.61;98408.59;1745877;80;20325;-86
2021/08/10 10:37:07;;;;;;;;;;;;;;;26.51;58.55;98402.91;1666775;84;24932;-86
2021/08/10 10:39:35;;;;;;;;;;;;;;;26.53;58.41;98401.37;1700744;83;21984;-87
2021/08/10 10:42:03;;;;;;;;;;;;;;;26.51;58.18;98401.57;1703393;84;26344;-89
2021/08/10 10:44:36;;;;;;;;;;;;;;;26.48;57.89;98402.52;1701366;82;24506;-89
2021/08/10 10:47:24;;;;;;;;;;;;;;;26.50;57.85;98401.80;1702814;84;20244;-89
2021/08/10 10:49:58;;;;;;;;;;;;;;;26.54;57.76;98397.66;1701074;84;25044;-88
2021/08/10 10:52:25;;;;;;;;;;;;;;;26.60;57.68;98393.63;1699159;84;22011;-87
2021/08/10 10:54:52;;;;;;;;;;;;;;;26.64;57.59;98385.96;1706277;83;25594;-86
2021/08/10 10:57:35;;;;;;;;;;;;;;;26.67;57.52;98388.24;1737967;80;25210;-87
2021/08/10 11:00:06;;;;;;;;;;;;;;;26.71;57.46;98384.09;1732558;82;20605;-86
2021/08/10 11:02:33;;;;;;;;;;;;;;;26.74;57.32;98381.48;1736438;80;25824;-89
2021/08/10 11:05:17;;;;;;;;;;;;;;;26.71;57.14;98377.37;1740717;80;21958;-89
2021/08/10 11:07:52;;;;;;;;;;;;;;;26.75;57.00;98375.09;1702946;84;26110;-86
2021/08/10 11:10:39;;;;;;;;;;;;;;;26.81;56.99;98371.05;1702883;82;24658;-86
2021/08/10 11:13:10;;;;;;;;;;;;;;;26.90;57.02;98371.65;1737422;82;20247;-86
2021/08/10 11:15:46;;;;;;;;;;;;;;;26.96;56.89;98363.57;1702159;83;25042;-88
2021/08/10 11:18:15;;;;;;;;;;;;;;;27.00;56.73;98357.27;1726719;82;23138;-88
2021/08/10 11:20:43;;;;;;;;;;;;;;;27.05;56.54;98352.91;1732645;82;26795;-87
2021/08/10 11:23:26;;;;;;;;;;;;;;;27.12;56.29;98350.68;1700693;83;24520;-87
2021/08/10 11:25:56;;;;;;;;;;;;;;;27.20;56.20;98351.79;1717852;82;20214;-87
2021/08/10 11:28:31;;;;;;;;;;;;;;;27.24;56.05;98349.80;1736947;82;25687;-88
2021/08/10 11:30:55;;;;;;;;;;;;;;;27.19;55.67;98344.77;1729261;82;22300;-88
2021/08/10 11:33:32;;;;;;;;;;;;;;;27.18;55.60;98349.31;1733342;80;26062;-86
2021/08/10 11:36:13;;;;;;;;;;;;;;;27.18;55.50;98345.28;1731926;82;24559;-87
2021/08/10 11:38:52;;;;;;;;;;;;;;;27.20;55.37;98343.21;1740769;82;20310;-87
2021/08/10 11:41:20;;;;;;;;;;;;;;;27.21;55.15;98345.38;1743744;82;25088;-88
2021/08/10 11:43:54;;;;;;;;;;;;;;;27.33;55.20;98340.98;1713299;82;22227;-87
2021/08/10 11:46:25;;;;;;;;;;;;;;;27.44;55.27;98337.57;1741788;81;26824;-87
2021/08/10 11:48:52;;;;;;;;;;;;;;;27.51;55.13;98330.84;1739146;82;25261;-87
2021/08/10 11:51:37;;;;;;;;;;;;;;;27.55;54.90;98334.77;1738638;82;20494;-86
2021/08/10 11:54:13;;;;;;;;;;;;;;;27.55;54.80;98328.84;1735756;82;21956;-87
2021/08/10 11:56:43;;;;;;;;;;;;;;;27.66;54.75;98326.80;1739614;82;22049;-87
2021/08/10 11:59:19;;;;;;;;;;;;;;;27.75;54.55;98329.53;1735784;82;22841;-87
2021/08/10 12:01:46;;;;;;;;;;;;;;;27.73;54.27;98322.19;1742580;82;24576;-87
2021/08/10 12:04:19;;;;;;;;;;;;;;;27.63;53.90;98317.83;1734758;82;20227;-88
2021/08/10 12:06:46;;;;;;;;;;;;;;;27.46;53.65;98318.85;1710033;83;25204;-88
2021/08/10 12:09:13;;;;;;;;;;;;;;;27.35;53.59;98321.41;1703332;82;22062;-88
2021/08/10 12:11:40;;;;;;;;;;;;;;;27.29;53.53;98313.69;1698295;84;26050;-88
2021/08/10 12:14:08;;;;;;;;;;;;;;;27.35;53.53;98306.11;1700665;82;24533;-88
2021/08/10 12:16:34;;;;;;;;;;;;;;;27.38;53.37;98300.83;1697915;83;20297;-88
2021/08/10 12:19:03;;;;;;;;;;;;;;;27.43;53.25;98300.48;1705663;82;20288;-88
2021/08/10 12:21:42;;;;;;;;;;;;;;;27.54;53.30;98300.33;1735503;82;22036;-88
2021/08/10 12:24:10;;;;;;;;;;;;;;;27.62;53.35;98296.02;1725467;82;25981;-88
2021/08/10 12:26:36;;;;;;;;;;;;;;;27.73;53.37;98303.37;1724441;81;24498;-88
2021/08/10 12:29:04;;;;;;;;;;;;;;;27.78;53.07;98300.84;1721229;82;20849;-88
2021/08/10 12:31:50;;;;;;;;;;;;;;;27.85;52.99;98296.23;1725946;82;25052;-87
2021/08/10 12:34:16;;;;;;;;;;;;;;;27.92;52.82;98293.49;1708409;82;22069;-88
2021/08/10 12:36:49;;;;;;;;;;;;;;;28.03;52.83;98290.08;1759107;80;25839;-88
2021/08/10 12:39:16;;;;;;;;;;;;;;;28.04;52.50;98282.83;1744175;80;24340;-88
2021/08/10 12:41:42;;;;;;;;;;;;;;;28.03;52.29;98272.59;1757627;80;20538;-88
2021/08/10 12:44:10;;;;;;;;;;;;;;;28.06;52.27;98265.92;1742846;81;25037;-88
2021/08/10 12:46:36;;;;;;;;;;;;;;;27.95;52.07;98259.41;1741123;82;22139;-88
2021/08/10 12:49:10;;;;;;;;;;;;;;;28.02;51.91;98260.69;1759085;80;25950;-88
2021/08/10 12:51:50;;;;;;;;;;;;;;;28.02;51.73;98260.69;1749395;80;24538;-87
2021/08/10 12:54:16;;;;;;;;;;;;;;;28.07;51.70;98263.02;1760998;80;20178;-87